Time;durP1;ratioP1;P1;durP2;ratioP2;P2;SDS_P1;SDS_P2;PMS_P1;PMS_P2;Temp;Humidity;BMP_temperature;BMP_pressure;BME280_temperature;BME280_humidity;BME280_pressure;Samples;Min_cycle;Max_cycle;Signal;HPM_P1;HPM_P2
2022/03/21 00:00:56;;;;;;;13.88;9.02;;;8.30;99.00;;;;;;5034257;28;20103;-74
2022/03/21 00:03:24;;;;;;;15.50;8.57;;;8.20;99.20;;;;;;5034153;28;20382;-74
2022/03/21 00:05:51;;;;;;;12.90;8.05;;;8.20;99.10;;;;;;5000285;28;20049;-74
2022/03/21 00:08:18;;;;;;;15.52;9.25;;;8.20;99.20;;;;;;5030213;28;20120;-73
2022/03/21 00:10:45;;;;;;;15.65;8.90;;;8.10;99.20;;;;;;5031892;28;20049;-72
2022/03/21 00:13:15;;;;;;;16.25;8.10;;;8.10;99.10;;;;;;5032199;28;20501;-74
2022/03/21 00:15:43;;;;;;;13.30;7.63;;;8.10;99.10;;;;;;5033915;28;20052;-74
2022/03/21 00:18:09;;;;;;;13.77;8.43;;;8.10;98.90;;;;;;5033796;28;20033;-74
2022/03/21 00:20:35;;;;;;;13.73;8.57;;;8.10;98.80;;;;;;5033761;28;20136;-74
2022/03/21 00:23:02;;;;;;;19.92;9.05;;;8.10;98.70;;;;;;5033550;28;20587;-73
2022/03/21 00:25:28;;;;;;;21.40;10.48;;;8.10;98.70;;;;;;5035731;28;20056;-74
2022/03/21 00:27:55;;;;;;;15.70;8.88;;;8.10;98.80;;;;;;5034069;28;20048;-74
2022/03/21 00:30:21;;;;;;;13.43;8.50;;;8.00;98.80;;;;;;5033738;28;20517;-74
2022/03/21 00:32:47;;;;;;;14.20;8.80;;;8.00;98.70;;;;;;5033441;28;20048;-73
2022/03/21 00:35:17;;;;;;;13.60;8.00;;;8.00;98.70;;;;;;5033811;28;20029;-74
2022/03/21 00:37:44;;;;;;;15.77;8.00;;;7.90;98.80;;;;;;5033607;28;20049;-72
2022/03/21 00:40:11;;;;;;;11.80;7.97;;;7.90;98.80;;;;;;5033448;28;20045;-74
2022/03/21 00:42:39;;;;;;;17.42;8.68;;;7.90;98.80;;;;;;5033273;28;20057;-74
2022/03/21 00:45:09;;;;;;;14.93;8.45;;;7.90;98.80;;;;;;5033222;28;20492;-74
2022/03/21 00:47:35;;;;;;;14.87;8.53;;;7.80;98.90;;;;;;5033155;28;20037;-72
2022/03/21 00:50:02;;;;;;;19.65;10.38;;;7.80;98.80;;;;;;5050746;28;20276;-74
2022/03/21 00:52:29;;;;;;;16.23;8.98;;;7.90;98.70;;;;;;5052924;28;20119;-73
2022/03/21 00:54:55;;;;;;;13.00;7.93;;;8.00;98.50;;;;;;5052906;28;20473;-74
2022/03/21 00:57:20;;;;;;;39.42;18.85;;;7.90;98.60;;;;;;5052906;28;20032;-74
2022/03/21 00:59:46;;;;;;;17.70;9.63;;;7.90;98.80;;;;;;5052901;28;20051;-74
2022/03/21 01:02:12;;;;;;;17.88;8.13;;;7.90;98.80;;;;;;5053112;28;20055;-74
2022/03/21 01:04:39;;;;;;;23.02;11.38;;;7.80;98.80;;;;;;5053002;28;20047;-74
2022/03/21 01:07:05;;;;;;;17.17;9.10;;;7.80;98.90;;;;;;5052799;28;20565;-74
2022/03/21 01:09:32;;;;;;;18.15;8.57;;;7.70;99.10;;;;;;5052819;28;20036;-74
2022/03/21 01:12:00;;;;;;;17.52;8.95;;;7.70;99.20;;;;;;5052152;28;20718;-74
2022/03/21 01:14:26;;;;;;;13.30;8.95;;;7.60;99.30;;;;;;5052761;28;20515;-73
2022/03/21 01:16:55;;;;;;;11.43;7.82;;;7.70;99.50;;;;;;5052865;28;20029;-74
2022/03/21 01:19:21;;;;;;;20.42;11.27;;;7.60;99.60;;;;;;5052621;28;20064;-74
2022/03/21 01:21:46;;;;;;;13.10;8.50;;;7.60;99.90;;;;;;5052807;28;20115;-74
2022/03/21 01:24:12;;;;;;;20.50;9.40;;;7.70;99.60;;;;;;5052788;28;20098;-74
2022/03/21 01:26:38;;;;;;;13.45;7.68;;;7.70;99.60;;;;;;5052607;28;20512;-74
2022/03/21 01:29:04;;;;;;;16.55;8.52;;;7.70;99.70;;;;;;5035150;28;20036;-74
2022/03/21 01:31:30;;;;;;;16.15;8.70;;;7.60;99.70;;;;;;5032602;28;20044;-74
2022/03/21 01:33:55;;;;;;;18.83;11.30;;;7.70;99.90;;;;;;5032496;28;20048;-73
2022/03/21 01:36:22;;;;;;;14.73;8.52;;;7.60;99.90;;;;;;5032771;28;20446;-74
2022/03/21 01:38:48;;;;;;;15.23;8.55;;;7.60;99.90;;;;;;5032783;28;20065;-74
2022/03/21 01:41:14;;;;;;;12.95;8.35;;;7.60;99.90;;;;;;5032652;28;20135;-74
2022/03/21 01:43:59;;;;;;;19.73;10.73;;;7.50;99.90;;;;;;5032645;28;20052;-73
2022/03/21 01:46:27;;;;;;;12.70;8.18;;;7.60;99.90;;;;;;5032511;28;20060;-73
2022/03/21 01:48:54;;;;;;;15.43;8.93;;;7.60;99.90;;;;;;5032535;28;20033;-74
2022/03/21 01:51:20;;;;;;;12.75;8.63;;;7.60;99.90;;;;;;5032483;28;20037;-74
2022/03/21 01:56:31;;;;;;;12.55;8.45;;;7.50;99.90;;;;;;5012808;28;20135;-72
2022/03/21 01:58:56;;;;;;;12.02;7.78;;;7.40;99.90;;;;;;5012870;28;20125;-73
2022/03/21 02:01:22;;;;;;;10.52;7.18;;;7.40;99.90;;;;;;5015057;28;20525;-74
2022/03/21 02:03:48;;;;;;;18.05;8.38;;;7.40;99.90;;;;;;5032459;28;20037;-74
2022/03/21 02:06:16;;;;;;;14.65;8.48;;;7.40;99.90;;;;;;5032461;28;20130;-75
2022/03/21 02:08:43;;;;;;;16.00;8.40;;;7.40;99.90;;;;;;5032482;28;20033;-74
2022/03/21 02:11:10;;;;;;;12.45;7.88;;;7.50;99.90;;;;;;5032464;28;20412;-74
2022/03/21 02:13:37;;;;;;;16.02;7.57;;;7.40;99.90;;;;;;5031380;28;20049;-73
2022/03/21 02:16:04;;;;;;;13.65;7.25;;;7.50;99.90;;;;;;5032438;28;20041;-74
2022/03/21 02:18:31;;;;;;;13.18;7.53;;;7.50;99.90;;;;;;5032587;28;20103;-74
2022/03/21 02:21:00;;;;;;;13.25;8.57;;;7.50;99.90;;;;;;5032299;28;20129;-72
2022/03/21 02:23:33;;;;;;;11.27;7.35;;;7.50;99.90;;;;;;5035512;28;20373;-74
2022/03/21 02:26:00;;;;;;;14.07;7.55;;;7.50;99.90;;;;;;5034828;28;20497;-74
2022/03/21 02:28:26;;;;;;;14.07;7.82;;;7.40;99.90;;;;;;5038587;28;20041;-73
2022/03/21 02:30:54;;;;;;;20.25;7.15;;;7.40;99.90;;;;;;5036052;28;20056;-74
2022/03/21 02:33:21;;;;;;;13.57;7.60;;;7.40;99.90;;;;;;5035935;28;20453;-74
2022/03/21 02:35:48;;;;;;;16.30;8.20;;;7.50;99.90;;;;;;5035904;28;20045;-73
2022/03/21 02:38:16;;;;;;;12.35;7.80;;;7.50;99.90;;;;;;5035604;28;20026;-73
2022/03/21 02:40:42;;;;;;;13.93;7.25;;;7.50;99.90;;;;;;5035741;28;20060;-74
2022/03/21 02:43:08;;;;;;;16.05;7.80;;;7.50;99.90;;;;;;5035379;28;20037;-74
2022/03/21 02:45:34;;;;;;;13.00;7.88;;;7.50;99.90;;;;;;5035278;28;20034;-74
2022/03/21 02:48:00;;;;;;;11.73;7.45;;;7.50;99.90;;;;;;5036471;28;20033;-73
2022/03/21 02:50:43;;;;;;;15.45;7.93;;;7.60;99.90;;;;;;5055170;28;20139;-74
2022/03/21 02:53:11;;;;;;;11.60;7.22;;;7.60;99.90;;;;;;5055059;28;20048;-74
2022/03/21 02:55:40;;;;;;;13.63;7.97;;;7.60;99.90;;;;;;5055054;28;20037;-74
2022/03/21 02:58:05;;;;;;;12.70;7.45;;;7.60;99.90;;;;;;5055257;28;20048;-73
2022/03/21 03:00:31;;;;;;;16.17;7.47;;;7.60;99.90;;;;;;5055180;28;20450;-74
2022/03/21 03:02:57;;;;;;;11.15;6.63;;;7.60;99.90;;;;;;5055234;28;20112;-74
2022/03/21 03:05:23;;;;;;;10.48;7.00;;;7.60;99.90;;;;;;5040203;28;20037;-74
2022/03/21 03:07:48;;;;;;;11.68;7.35;;;7.60;99.90;;;;;;5032579;28;20045;-74
2022/03/21 03:10:14;;;;;;;12.82;7.03;;;7.60;99.90;;;;;;5035213;28;20524;-73
2022/03/21 03:12:41;;;;;;;15.25;7.85;;;7.60;99.90;;;;;;5033626;28;20044;-74
2022/03/21 03:15:07;;;;;;;12.20;6.80;;;7.60;99.90;;;;;;5034883;28;20044;-74
2022/03/21 03:17:33;;;;;;;10.45;6.97;;;7.60;99.90;;;;;;5034888;28;20037;-74
2022/03/21 03:19:59;;;;;;;10.45;6.72;;;7.60;99.90;;;;;;5034650;28;20111;-74
2022/03/21 03:22:27;;;;;;;9.13;6.80;;;7.50;99.90;;;;;;5035053;28;20117;-74
2022/03/21 03:24:53;;;;;;;13.02;7.82;;;7.50;99.90;;;;;;5034924;28;20124;-74
2022/03/21 03:27:19;;;;;;;12.40;7.43;;;7.50;99.90;;;;;;5035154;28;20114;-73
2022/03/21 03:29:45;;;;;;;12.27;7.93;;;7.50;99.90;;;;;;5034827;28;20041;-74
2022/03/21 03:32:10;;;;;;;9.45;7.10;;;7.50;99.90;;;;;;5034851;28;20409;-74
2022/03/21 03:34:36;;;;;;;10.80;7.20;;;7.50;99.90;;;;;;5033365;28;20045;-74
2022/03/21 03:37:02;;;;;;;11.63;7.22;;;7.50;99.90;;;;;;5034220;28;20072;-74
2022/03/21 03:39:29;;;;;;;13.00;7.32;;;7.50;99.90;;;;;;5016605;28;20069;-73
2022/03/21 03:41:55;;;;;;;10.85;7.70;;;7.50;99.90;;;;;;5034275;28;20049;-72
2022/03/21 03:44:23;;;;;;;11.60;7.95;;;7.50;99.90;;;;;;5016498;28;20067;-73
2022/03/21 03:46:49;;;;;;;12.38;7.72;;;7.50;99.90;;;;;;5034493;28;20065;-73
2022/03/21 03:49:15;;;;;;;13.18;7.68;;;7.50;99.90;;;;;;5034424;28;20045;-73
2022/03/21 03:51:40;;;;;;;13.75;7.60;;;7.50;99.90;;;;;;5034430;28;20037;-73
2022/03/21 03:54:06;;;;;;;9.90;7.45;;;7.50;99.90;;;;;;5034413;28;20065;-74
2022/03/21 03:56:32;;;;;;;14.30;7.15;;;7.40;99.90;;;;;;5034316;28;20095;-74
2022/03/21 03:58:58;;;;;;;9.75;7.30;;;7.50;99.90;;;;;;5034330;28;20033;-74
2022/03/21 04:01:23;;;;;;;12.15;7.35;;;7.50;99.90;;;;;;5034020;28;20052;-74
2022/03/21 04:03:49;;;;;;;12.50;7.85;;;7.50;99.90;;;;;;5033839;28;20055;-74
2022/03/21 04:06:21;;;;;;;12.35;7.50;;;7.50;99.90;;;;;;5034113;28;20136;-73
2022/03/21 04:08:48;;;;;;;11.82;7.68;;;7.50;99.90;;;;;;5033871;28;20048;-74
2022/03/21 04:11:15;;;;;;;14.02;7.60;;;7.50;99.90;;;;;;5033064;28;20041;-74
2022/03/21 04:13:42;;;;;;;16.98;8.48;;;7.50;99.90;;;;;;5010381;28;20080;-74
2022/03/21 04:16:08;;;;;;;14.52;8.07;;;7.50;99.90;;;;;;5012107;28;20048;-74
2022/03/21 04:18:35;;;;;;;14.70;7.97;;;7.50;99.90;;;;;;5012219;28;20409;-74
2022/03/21 04:21:02;;;;;;;16.20;8.80;;;7.50;99.90;;;;;;5013755;28;20045;-73
2022/03/21 04:23:28;;;;;;;12.93;7.70;;;7.50;99.90;;;;;;5013985;28;20080;-74
2022/03/21 04:25:54;;;;;;;12.30;7.63;;;7.50;99.90;;;;;;5014085;28;20070;-74
2022/03/21 04:28:20;;;;;;;14.18;8.10;;;7.50;99.90;;;;;;5013553;28;20367;-74
2022/03/21 04:30:46;;;;;;;14.30;8.18;;;7.50;99.90;;;;;;5013524;28;20045;-73
2022/03/21 04:33:12;;;;;;;14.48;8.02;;;7.50;99.90;;;;;;5013510;28;20048;-74
2022/03/21 04:35:39;;;;;;;17.13;8.50;;;7.50;99.90;;;;;;5013713;28;20052;-74
2022/03/21 04:38:13;;;;;;;16.50;7.88;;;7.50;99.90;;;;;;5013678;28;20042;-74
2022/03/21 04:40:44;;;;;;;15.25;9.13;;;7.50;99.90;;;;;;5013537;28;20049;-74
2022/03/21 04:43:10;;;;;;;12.50;8.07;;;7.50;99.80;;;;;;5013698;28;20037;-72
2022/03/21 04:45:36;;;;;;;12.13;6.90;;;7.50;99.90;;;;;;5013556;28;20037;-74
2022/03/21 04:48:04;;;;;;;14.60;7.43;;;7.50;99.90;;;;;;4997542;28;20096;-73
2022/03/21 04:50:30;;;;;;;13.82;7.97;;;7.50;99.70;;;;;;5033298;28;20040;-74
2022/03/21 04:52:56;;;;;;;20.27;8.40;;;7.60;99.70;;;;;;5033442;28;20489;-74
2022/03/21 04:55:22;;;;;;;17.30;7.90;;;7.60;99.70;;;;;;5033453;28;20040;-73
2022/03/21 04:57:48;;;;;;;16.35;8.20;;;7.50;99.90;;;;;;5032987;28;20048;-73
2022/03/21 05:00:15;;;;;;;17.15;8.68;;;7.60;99.90;;;;;;5033001;28;20049;-74
2022/03/21 05:02:41;;;;;;;13.20;8.18;;;7.50;99.90;;;;;;5033133;28;20389;-73
2022/03/21 05:05:08;;;;;;;13.20;7.50;;;7.50;99.30;;;;;;5032925;28;20048;-74
2022/03/21 05:07:42;;;;;;;10.35;7.30;;;7.60;99.00;;;;;;5033250;28;20033;-74
2022/03/21 05:10:09;;;;;;;11.85;7.43;;;7.60;99.40;;;;;;5033164;28;20049;-74
2022/03/21 05:12:36;;;;;;;12.68;7.70;;;7.60;99.80;;;;;;5033011;28;20041;-74
2022/03/21 05:15:03;;;;;;;13.07;8.38;;;7.60;99.30;;;;;;5032995;28;20121;-74
2022/03/21 05:17:29;;;;;;;12.00;6.97;;;7.50;99.40;;;;;;5033056;28;20037;-74
2022/03/21 05:19:56;;;;;;;11.40;7.10;;;7.60;98.70;;;;;;5032842;28;20456;-74
2022/03/21 05:22:21;;;;;;;9.73;6.70;;;7.70;98.70;;;;;;5032978;28;20461;-74
2022/03/21 05:35:55;;;;;;;12.32;7.85;;;7.60;98.60;;;;;;5032726;28;20036;-73
2022/03/21 05:38:29;;;;;;;14.20;7.70;;;7.60;98.10;;;;;;5032597;28;20046;-74
2022/03/21 05:40:58;;;;;;;14.85;7.57;;;7.70;98.40;;;;;;5034919;28;20053;-75
2022/03/21 05:43:24;;;;;;;15.98;7.95;;;7.70;98.40;;;;;;5032675;28;20044;-73
2022/03/21 05:45:52;;;;;;;13.07;8.23;;;7.60;98.40;;;;;;5032570;28;20041;-73
2022/03/21 05:51:03;;;;;;;14.35;8.25;;;7.60;98.80;;;;;;5032613;28;20047;-74
2022/03/21 05:53:32;;;;;;;14.85;7.88;;;7.60;99.20;;;;;;5032680;28;20041;-73
2022/03/21 05:56:00;;;;;;;13.88;8.05;;;7.50;99.30;;;;;;5014939;28;20072;-74
2022/03/21 05:58:27;;;;;;;13.30;7.70;;;7.50;99.70;;;;;;5036037;28;20029;-73
2022/03/21 06:00:53;;;;;;;15.95;8.93;;;7.50;99.90;;;;;;5036351;28;20060;-74
2022/03/21 06:03:19;;;;;;;16.08;9.25;;;7.50;99.90;;;;;;5036243;28;20041;-73
2022/03/21 06:05:45;;;;;;;18.35;9.38;;;7.50;99.90;;;;;;5018474;28;20060;-74
2022/03/21 06:08:11;;;;;;;14.32;8.43;;;7.50;99.90;;;;;;5036343;28;20440;-74
2022/03/21 06:10:37;;;;;;;16.23;8.82;;;7.50;99.90;;;;;;5036217;28;20056;-73
2022/03/21 06:13:05;;;;;;;14.40;8.50;;;7.40;99.90;;;;;;5036040;28;21092;-74
2022/03/21 06:15:32;;;;;;;15.00;9.43;;;7.50;99.90;;;;;;5036394;28;20116;-74
2022/03/21 06:17:59;;;;;;;17.30;9.90;;;7.40;99.90;;;;;;5035916;28;20121;-72
2022/03/21 06:20:26;;;;;;;16.52;9.25;;;7.50;99.90;;;;;;5035727;28;20136;-72
2022/03/21 06:22:52;;;;;;;16.48;9.20;;;7.40;99.90;;;;;;5034509;28;20045;-75
2022/03/21 06:25:18;;;;;;;14.25;8.90;;;7.50;99.90;;;;;;5035940;28;20041;-75
2022/03/21 06:27:44;;;;;;;18.30;9.70;;;7.50;99.90;;;;;;5036140;28;20049;-74
2022/03/21 06:30:10;;;;;;;16.40;9.70;;;7.50;99.90;;;;;;5035289;28;20536;-73
2022/03/21 06:32:37;;;;;;;16.67;9.45;;;7.50;99.90;;;;;;5053577;28;20039;-75
2022/03/21 06:35:04;;;;;;;14.63;9.75;;;7.50;99.90;;;;;;5055389;28;20447;-72
2022/03/21 06:37:31;;;;;;;17.08;10.55;;;7.50;99.90;;;;;;5054378;28;20123;-72
2022/03/21 06:39:57;;;;;;;16.38;9.73;;;7.60;99.90;;;;;;5055900;28;20438;-72
2022/03/21 06:42:23;;;;;;;12.75;8.63;;;7.60;99.90;;;;;;5055451;28;20131;-75
2022/03/21 06:44:50;;;;;;;19.00;9.27;;;7.60;99.90;;;;;;5047654;28;20078;-75
2022/03/21 06:47:17;;;;;;;19.10;9.95;;;7.60;99.90;;;;;;5035643;28;20045;-73
2022/03/21 06:49:43;;;;;;;14.23;8.65;;;7.70;99.70;;;;;;5042323;28;20045;-75
2022/03/21 06:52:09;;;;;;;15.88;9.68;;;7.70;99.30;;;;;;5035592;28;20404;-74
2022/03/21 06:54:36;;;;;;;14.70;9.27;;;7.70;99.40;;;;;;5035621;28;20030;-74
2022/03/21 06:57:03;;;;;;;16.35;9.27;;;7.80;99.90;;;;;;5036095;28;20049;-74
2022/03/21 06:59:29;;;;;;;15.35;8.98;;;7.80;99.90;;;;;;5035430;28;20038;-73
2022/03/21 07:01:58;;;;;;;17.85;10.05;;;7.80;99.70;;;;;;5035352;28;20061;-74
2022/03/21 07:04:26;;;;;;;11.70;7.90;;;7.90;99.80;;;;;;5035145;28;21127;-72
2022/03/21 07:06:53;;;;;;;13.80;8.88;;;7.90;99.90;;;;;;5034556;28;20128;-75
2022/03/21 07:09:20;;;;;;;13.55;8.73;;;8.10;99.90;;;;;;5033443;28;20116;-72
2022/03/21 07:11:46;;;;;;;17.38;9.55;;;8.10;99.90;;;;;;5033891;28;20047;-73
2022/03/21 07:14:15;;;;;;;15.85;10.35;;;8.00;99.40;;;;;;5035091;28;20120;-73
2022/03/21 07:16:41;;;;;;;14.43;9.38;;;8.10;99.50;;;;;;5035045;28;20124;-74
2022/03/21 07:19:07;;;;;;;17.65;9.88;;;8.10;99.90;;;;;;5034009;28;20132;-74
2022/03/21 07:21:33;;;;;;;20.95;10.23;;;8.20;99.80;;;;;;5034824;28;20053;-75
2022/03/21 07:23:59;;;;;;;19.83;9.48;;;8.20;99.20;;;;;;5035008;28;20099;-76
2022/03/21 07:26:25;;;;;;;14.18;9.02;;;8.30;99.70;;;;;;5033697;28;20049;-78
2022/03/21 07:28:51;;;;;;;22.45;12.48;;;8.40;99.80;;;;;;5034903;28;20504;-73
2022/03/21 07:31:17;;;;;;;16.02;10.60;;;8.40;99.90;;;;;;5034902;28;20099;-75
2022/03/21 07:33:43;;;;;;;23.55;11.82;;;8.40;99.90;;;;;;5034727;28;20072;-79
2022/03/21 07:36:10;;;;;;;24.02;14.05;;;8.50;99.90;;;;;;5034535;28;20083;-78
2022/03/21 07:38:36;;;;;;;21.00;12.52;;;8.50;99.90;;;;;;5033992;28;20049;-78
2022/03/21 07:41:07;;;;;;;29.30;17.40;;;8.60;99.90;;;;;;5034867;28;20049;-74
2022/03/21 07:43:33;;;;;;;18.00;11.05;;;8.60;99.90;;;;;;5033529;28;20045;-77
2022/03/21 07:48:44;;;;;;;18.33;12.18;;;8.60;99.90;;;;;;5033399;28;20082;-72
2022/03/21 07:51:10;;;;;;;17.20;10.57;;;8.70;99.90;;;;;;5034483;28;20530;-76
2022/03/21 07:53:36;;;;;;;25.85;15.82;;;8.80;99.90;;;;;;5034511;28;20064;-76
2022/03/21 07:56:02;;;;;;;21.48;15.63;;;8.70;99.60;;;;;;5034736;28;20513;-74
2022/03/21 07:58:28;;;;;;;19.30;11.60;;;8.80;99.90;;;;;;5034378;28;20041;-75
2022/03/21 08:00:56;;;;;;;24.05;12.48;;;8.90;99.90;;;;;;5022036;28;20057;-76
2022/03/21 08:03:22;;;;;;;24.58;16.17;;;8.90;99.50;;;;;;5034154;28;20124;-77
2022/03/21 08:05:48;;;;;;;33.35;15.88;;;8.90;99.60;;;;;;5034106;28;20055;-76
2022/03/21 08:08:15;;;;;;;24.30;15.52;;;8.90;99.20;;;;;;5034006;28;20124;-77
2022/03/21 08:10:42;;;;;;;21.30;13.00;;;8.90;99.10;;;;;;5033954;28;20044;-73
2022/03/21 08:13:08;;;;;;;27.75;15.25;;;8.90;99.00;;;;;;5034795;28;20068;-73
2022/03/21 08:15:38;;;;;;;23.73;13.00;;;9.00;99.10;;;;;;5035636;28;20041;-76
2022/03/21 08:18:05;;;;;;;23.35;11.43;;;9.10;99.40;;;;;;5030105;28;20037;-74
2022/03/21 08:20:33;;;;;;;16.08;9.95;;;9.10;98.80;;;;;;5031566;28;20452;-73
2022/03/21 08:23:05;;;;;;;19.63;10.10;;;8.90;97.80;;;;;;5032140;28;20038;-73
2022/03/21 08:25:31;;;;;;;22.55;12.43;;;8.90;98.10;;;;;;5033055;28;20095;-77
2022/03/21 08:27:57;;;;;;;16.17;9.65;;;9.00;98.10;;;;;;5033714;28;20037;-77
2022/03/21 08:30:24;;;;;;;17.50;10.20;;;9.00;97.80;;;;;;5033728;28;20045;-74
2022/03/21 08:32:50;;;;;;;23.08;10.20;;;9.10;98.20;;;;;;5033646;28;20041;-77
2022/03/21 08:35:18;;;;;;;15.50;9.63;;;9.10;98.30;;;;;;5033626;28;20060;-76
2022/03/21 08:37:45;;;;;;;16.65;10.45;;;9.20;98.90;;;;;;5033580;28;20069;-73
2022/03/21 08:40:11;;;;;;;19.75;11.18;;;9.30;98.30;;;;;;5033510;28;20405;-75
2022/03/21 08:42:37;;;;;;;16.88;10.30;;;9.30;98.70;;;;;;5033508;28;20132;-75
2022/03/21 08:45:05;;;;;;;21.85;13.70;;;9.30;97.70;;;;;;5033397;28;20500;-75
2022/03/21 08:47:30;;;;;;;19.33;10.13;;;9.30;98.50;;;;;;5033384;28;20370;-75
2022/03/21 08:49:56;;;;;;;21.25;10.88;;;9.30;98.00;;;;;;5033185;28;20060;-75
2022/03/21 08:52:22;;;;;;;20.05;12.40;;;9.30;97.20;;;;;;5015873;28;20041;-74
2022/03/21 08:54:48;;;;;;;19.90;12.88;;;9.20;97.20;;;;;;5035328;28;20150;-75
2022/03/21 08:57:14;;;;;;;19.95;10.30;;;9.30;97.50;;;;;;5031857;28;20049;-75
2022/03/21 08:59:39;;;;;;;19.83;11.25;;;9.30;97.70;;;;;;5032969;28;20048;-74
2022/03/21 09:02:08;;;;;;;18.10;10.93;;;9.30;97.20;;;;;;5033166;28;20056;-73
2022/03/21 09:04:35;;;;;;;20.88;10.60;;;9.30;97.40;;;;;;5033164;28;20467;-74
2022/03/21 09:07:01;;;;;;;18.33;11.02;;;9.30;98.00;;;;;;5032999;28;20095;-75
2022/03/21 09:09:27;;;;;;;15.98;10.60;;;9.40;98.00;;;;;;5032980;28;20040;-74
2022/03/21 09:11:53;;;;;;;21.70;11.05;;;9.40;98.20;;;;;;5032982;28;20041;-74
2022/03/21 09:14:18;;;;;;;27.52;11.57;;;9.50;98.10;;;;;;5033098;28;20045;-75
2022/03/21 09:16:44;;;;;;;19.42;11.00;;;9.70;97.80;;;;;;5033178;28;20436;-74
2022/03/21 09:19:11;;;;;;;22.95;10.80;;;9.70;97.60;;;;;;5033067;28;20563;-74
2022/03/21 09:21:37;;;;;;;16.27;9.73;;;9.80;97.90;;;;;;5033008;28;20584;-73
2022/03/21 09:24:04;;;;;;;16.50;9.98;;;10.00;98.10;;;;;;5032952;28;20527;-72
2022/03/21 09:26:30;;;;;;;18.50;11.00;;;10.00;97.80;;;;;;5032921;28;20041;-73
2022/03/21 09:29:05;;;;;;;20.15;10.23;;;9.90;97.10;;;;;;5032909;28;20184;-73
2022/03/21 09:31:32;;;;;;;16.27;10.00;;;10.00;97.50;;;;;;5033346;28;20120;-73
2022/03/21 09:33:59;;;;;;;18.50;10.55;;;10.10;97.80;;;;;;5037201;28;20056;-73
2022/03/21 09:36:26;;;;;;;15.95;10.57;;;10.20;98.40;;;;;;5037022;28;20401;-74
2022/03/21 09:38:52;;;;;;;20.67;10.25;;;10.30;98.10;;;;;;5036873;28;20060;-74
2022/03/21 09:41:23;;;;;;;27.55;10.23;;;10.50;97.80;;;;;;5036497;28;20513;-74
2022/03/21 09:43:54;;;;;;;23.40;12.13;;;10.30;96.70;;;;;;5036538;28;20033;-75
2022/03/21 09:46:20;;;;;;;;;;;10.40;97.50;;;;;;5036200;28;20131;-76
2022/03/21 09:48:53;;;;;;;40.08;15.15;;;10.60;97.70;;;;;;5044426;28;19959;-74
2022/03/21 09:51:29;;;;;;;34.72;14.00;;;10.60;98.30;;;;;;5039354;28;20124;-77
2022/03/21 09:53:59;;;;;;;18.25;10.23;;;10.50;97.60;;;;;;5056275;28;20516;-78
2022/03/21 09:56:26;;;;;;;18.33;9.93;;;10.60;97.40;;;;;;5056739;28;20057;-73
2022/03/21 09:59:01;;;;;;;20.17;12.10;;;10.70;98.00;;;;;;5056605;28;20045;-77
2022/03/21 10:01:31;;;;;;;21.80;11.63;;;10.70;97.70;;;;;;5056456;28;20049;-75
2022/03/21 10:03:58;;;;;;;36.33;15.77;;;10.70;96.80;;;;;;5056328;28;20047;-76
2022/03/21 10:06:32;;;;;;;55.72;25.75;;;10.80;97.00;;;;;;5056252;28;20053;-75
2022/03/21 10:09:18;;;;;;;25.23;13.85;;;11.20;97.60;;;;;;5038611;28;20037;-75
2022/03/21 10:11:53;;;;;;;23.75;14.68;;;11.80;97.80;;;;;;5056061;28;20040;-75
2022/03/21 10:14:26;;;;;;;22.45;13.73;;;12.60;98.30;;;;;;5055972;28;20500;-75
2022/03/21 10:16:56;;;;;;;17.42;11.23;;;12.50;96.60;;;;;;5056049;28;20040;-75
2022/03/21 10:19:23;;;;;;;25.73;15.23;;;12.30;95.80;;;;;;5056361;28;20052;-73
2022/03/21 10:22:10;;;;;;;17.17;9.75;;;12.40;97.10;;;;;;5055937;28;20059;-74
2022/03/21 10:24:38;;;;;;;18.88;11.73;;;12.70;95.30;;;;;;5055742;28;20089;-75
2022/03/21 10:27:05;;;;;;;22.73;12.70;;;13.00;95.30;;;;;;5038709;28;20048;-75
2022/03/21 10:29:31;;;;;;;18.73;9.68;;;13.10;94.20;;;;;;5036369;28;20038;-75
2022/03/21 10:31:58;;;;;;;22.75;11.40;;;13.50;94.80;;;;;;5035912;28;20049;-74
2022/03/21 10:34:34;;;;;;;15.80;9.85;;;13.20;93.70;;;;;;5035663;28;20187;-74
2022/03/21 10:37:09;;;;;;;19.88;11.90;;;13.10;93.60;;;;;;5035749;28;20044;-75
2022/03/21 10:39:40;;;;;;;17.83;9.45;;;12.80;94.30;;;;;;5035601;28;20055;-74
2022/03/21 10:42:09;;;;;;;16.08;9.85;;;12.40;93.00;;;;;;5035816;28;20483;-75
2022/03/21 10:44:36;;;;;;;14.43;9.48;;;12.20;92.70;;;;;;5035589;28;20045;-75
2022/03/21 10:47:07;;;;;;;15.80;9.40;;;12.30;92.90;;;;;;5035633;28;20546;-75
2022/03/21 10:49:43;;;;;;;;;;;12.60;93.50;;;;;;5035612;28;20041;-75
2022/03/21 10:52:16;;;;;;;14.68;9.23;;;12.50;92.70;;;;;;5035576;28;19916;-74
2022/03/21 10:54:50;;;;;;;18.45;9.60;;;12.50;93.50;;;;;;5035404;28;20045;-74
2022/03/21 10:57:27;;;;;;;21.02;9.90;;;12.70;93.00;;;;;;5037938;28;20045;-73
2022/03/21 11:00:11;;;;;;;14.90;8.63;;;12.80;93.90;;;;;;5035289;28;20057;-76
2022/03/21 11:02:47;;;;;;;22.15;10.38;;;12.80;93.20;;;;;;5035416;28;20497;-76
2022/03/21 11:05:14;;;;;;;13.80;8.88;;;12.70;93.10;;;;;;5032286;28;20033;-76
2022/03/21 11:07:40;;;;;;;16.70;8.27;;;12.50;93.20;;;;;;5042572;28;20049;-75
2022/03/21 11:10:07;;;;;;;15.20;9.38;;;12.60;93.50;;;;;;5055084;28;20076;-75
2022/03/21 11:12:34;;;;;;;16.42;8.52;;;12.60;92.90;;;;;;5053791;28;20112;-73
2022/03/21 11:15:04;;;;;;;12.13;7.97;;;12.70;93.80;;;;;;5054530;28;20048;-75
2022/03/21 11:17:32;;;;;;;13.57;8.30;;;12.80;92.60;;;;;;5023960;28;20049;-75
2022/03/21 11:20:01;;;;;;;15.02;8.65;;;12.90;93.30;;;;;;5012982;28;20092;-74
2022/03/21 11:22:28;;;;;;;19.70;9.00;;;13.50;93.60;;;;;;5013080;28;20096;-75
2022/03/21 11:24:54;;;;;;;12.35;8.23;;;13.70;93.20;;;;;;5012816;28;20038;-75
2022/03/21 11:27:38;;;;;;;15.20;8.68;;;13.90;94.50;;;;;;5013125;28;20449;-74
2022/03/21 11:30:17;;;;;;;14.60;9.15;;;14.20;93.80;;;;;;5013063;28;20049;-75
2022/03/21 11:33:01;;;;;;;15.85;9.00;;;14.00;92.70;;;;;;5013215;28;20096;-74
2022/03/21 11:35:28;;;;;;;15.23;9.00;;;14.00;92.10;;;;;;5013346;28;20040;-76
2022/03/21 11:38:14;;;;;;;13.57;8.43;;;14.20;94.30;;;;;;5012450;28;20069;-75
2022/03/21 11:40:40;;;;;;;13.32;8.32;;;14.50;93.60;;;;;;5011923;28;20418;-75
2022/03/21 11:43:15;;;;;;;15.35;8.38;;;13.90;91.70;;;;;;5012529;28;20125;-76
2022/03/21 11:45:41;;;;;;;13.95;9.38;;;13.50;91.70;;;;;;5012134;28;20037;-75
2022/03/21 11:48:33;;;;;;;18.98;9.15;;;13.40;91.60;;;;;;5012676;28;20413;-76
2022/03/21 11:50:59;;;;;;;16.38;8.80;;;13.60;93.00;;;;;;4992663;28;20048;-76
2022/03/21 11:53:31;;;;;;;18.60;9.35;;;14.20;92.70;;;;;;5012802;28;20045;-76
2022/03/21 11:55:58;;;;;;;15.55;9.13;;;14.30;92.50;;;;;;5012738;28;20042;-76
2022/03/21 11:58:39;;;;;;;14.25;9.20;;;14.30;91.70;;;;;;5012316;28;20033;-76
2022/03/21 12:01:09;;;;;;;14.52;9.30;;;14.10;91.70;;;;;;4994589;28;20054;-76
2022/03/21 12:03:36;;;;;;;13.47;9.27;;;14.50;92.00;;;;;;5013053;28;20096;-76
2022/03/21 12:06:31;;;;;;;14.68;9.30;;;14.80;93.10;;;;;;5014321;28;20049;-76
2022/03/21 12:09:10;;;;;;;15.90;8.38;;;15.00;94.50;;;;;;5012817;28;20390;-75
2022/03/21 12:11:39;;;;;;;16.73;8.93;;;14.40;90.40;;;;;;5012143;28;20049;-75
2022/03/21 12:14:23;;;;;;;15.95;8.68;;;14.50;92.40;;;;;;5012158;28;20485;-77
2022/03/21 12:17:01;;;;;;;16.30;9.35;;;14.40;91.10;;;;;;5013256;28;20061;-77
2022/03/21 12:19:45;;;;;;;14.60;9.00;;;14.30;91.30;;;;;;5014098;28;20046;-74
2022/03/21 12:22:29;;;;;;;13.25;8.10;;;14.30;91.40;;;;;;5019643;28;20132;-75
2022/03/21 12:25:11;;;;;;;15.50;8.50;;;13.80;91.00;;;;;;5031117;28;20540;-76
2022/03/21 12:27:47;;;;;;;12.45;8.05;;;13.70;91.30;;;;;;5034219;28;20041;-75
2022/03/21 12:33:22;;;;;;;13.63;9.50;;;13.50;91.00;;;;;;5032041;28;20116;-78
2022/03/21 12:35:51;;;;;;;12.95;8.35;;;13.70;92.30;;;;;;5037653;28;20041;-80
2022/03/21 12:38:22;;;;;;;15.80;9.13;;;14.30;92.30;;;;;;5053511;28;20568;-77
2022/03/21 12:40:51;;;;;;;12.50;8.02;;;14.50;91.00;;;;;;5053660;28;20044;-78
2022/03/21 12:43:25;;;;;;;16.70;8.65;;;14.50;91.20;;;;;;5053071;28;20062;-77
2022/03/21 12:45:58;;;;;;;14.85;9.38;;;14.50;91.00;;;;;;5053146;28;20036;-77
2022/03/21 12:48:29;;;;;;;14.20;8.50;;;14.40;91.50;;;;;;5053248;28;20453;-78
2022/03/21 12:50:55;;;;;;;13.55;8.10;;;14.40;91.20;;;;;;5053141;28;20056;-77
2022/03/21 12:53:22;;;;;;;13.93;7.93;;;14.40;91.20;;;;;;5053367;28;20409;-78
2022/03/21 12:56:03;;;;;;;16.27;8.98;;;14.60;90.60;;;;;;5053629;28;20033;-76
2022/03/21 12:58:29;;;;;;;12.30;8.20;;;14.90;91.40;;;;;;5053326;28;20124;-77
2022/03/21 13:01:00;;;;;;;18.00;8.30;;;14.70;90.50;;;;;;5037396;28;20049;-79
2022/03/21 13:03:26;;;;;;;15.18;8.05;;;14.80;90.70;;;;;;5030641;28;20073;-79
2022/03/21 13:11:37;;;;;;;14.70;8.07;;;14.60;89.70;;;;;;5031094;28;20041;-78
2022/03/21 13:14:14;;;;;;;13.07;7.93;;;14.90;90.40;;;;;;5030701;28;20037;-78
2022/03/21 13:16:45;;;;;;;11.60;8.02;;;15.00;91.00;;;;;;5029706;28;20529;-81